Time;durP1;ratioP1;P1;durP2;ratioP2;P2;SDS_P1;SDS_P2;PMS_P1;PMS_P2;Temp;Humidity;BMP_temperature;BMP_pressure;BME280_temperature;BME280_humidity;BME280_pressure;Samples;Min_cycle;Max_cycle;Signal;HPM_P1;HPM_P2
2022/03/24 00:00:23;;;;;;;67.70;32.30;;;;;;;6.67;100.00;102572.03;7393184;19;20365;-50
2022/03/24 00:02:52;;;;;;;70.63;34.00;;;;;;;6.70;100.00;102578.34;7388467;19;20408;-54
2022/03/24 00:05:22;;;;;;;65.17;32.00;;;;;;;6.66;100.00;102573.69;7392245;19;20408;-54
2022/03/24 00:07:55;;;;;;;69.40;33.47;;;;;;;6.62;100.00;102575.09;7388091;19;20489;-55
2022/03/24 00:10:24;;;;;;;65.73;32.20;;;;;;;6.65;100.00;102573.59;7393524;19;20463;-51
2022/03/24 00:12:55;;;;;;;66.27;32.07;;;;;;;6.60;100.00;102576.66;7389141;19;20408;-54
2022/03/24 00:15:25;;;;;;;72.07;32.73;;;;;;;6.53;100.00;102569.19;7394942;19;20422;-53
2022/03/24 00:17:55;;;;;;;72.77;32.87;;;;;;;6.57;100.00;102572.91;7386102;19;20406;-52
2022/03/24 00:20:25;;;;;;;68.07;35.17;;;;;;;6.52;100.00;102572.53;7393178;19;20382;-52
2022/03/24 00:22:57;;;;;;;70.80;34.23;;;;;;;6.53;100.00;102566.63;7387635;19;20750;-54
2022/03/24 00:25:27;;;;;;;75.50;33.23;;;;;;;6.49;100.00;102567.09;7391439;19;20415;-55
2022/03/24 00:27:56;;;;;;;64.30;32.70;;;;;;;6.47;100.00;102568.66;7386640;19;20514;-54
2022/03/24 00:30:26;;;;;;;57.90;30.40;;;;;;;6.52;100.00;102557.13;7392775;19;20509;-50
2022/03/24 00:32:56;;;;;;;58.57;30.10;;;;;;;6.65;100.00;102558.19;7386710;19;20439;-48
2022/03/24 00:35:26;;;;;;;62.10;31.77;;;;;;;6.62;100.00;102559.72;7389589;19;20405;-52
2022/03/24 00:37:58;;;;;;;59.57;29.10;;;;;;;6.59;100.00;102555.97;7387020;19;20402;-56
2022/03/24 00:40:28;;;;;;;60.83;30.40;;;;;;;6.60;100.00;102556.13;7392181;19;20400;-48
2022/03/24 00:42:57;;;;;;;67.50;30.23;;;;;;;6.55;100.00;102552.25;7388537;19;20842;-54
2022/03/24 00:45:29;;;;;;;61.03;31.40;;;;;;;6.46;100.00;102551.47;7390788;19;20426;-52
2022/03/24 00:47:58;;;;;;;63.93;30.53;;;;;;;6.47;100.00;102550.69;7386384;19;20417;-53
2022/03/24 00:50:28;;;;;;;60.20;30.20;;;;;;;6.44;100.00;102545.28;7392292;19;20386;-52
2022/03/24 00:53:00;;;;;;;66.13;30.70;;;;;;;6.44;100.00;102548.75;7387653;19;20429;-46
2022/03/24 00:55:31;;;;;;;68.40;30.70;;;;;;;6.50;100.00;102545.81;7391496;19;20432;-51
2022/03/24 00:58:00;;;;;;;58.97;30.27;;;;;;;6.47;100.00;102537.88;7387005;19;20421;-51
2022/03/24 01:00:30;;;;;;;62.57;28.87;;;;;;;6.60;100.00;102537.25;7391630;19;20627;-47
2022/03/24 01:03:00;;;;;;;63.63;31.00;;;;;;;6.52;100.00;102544.31;7387641;19;20492;-53
2022/03/24 01:05:30;;;;;;;60.47;31.20;;;;;;;6.49;100.00;102541.47;7390420;19;20829;-53
2022/03/24 01:08:03;;;;;;;66.93;30.97;;;;;;;6.55;100.00;102543.66;7387389;19;20400;-49
2022/03/24 01:10:32;;;;;;;79.50;31.73;;;;;;;6.53;100.00;102537.50;7392079;19;20458;-51
2022/03/24 01:13:02;;;;;;;66.63;30.30;;;;;;;6.57;100.00;102537.00;7383356;19;20418;-51
2022/03/24 01:15:32;;;;;;;64.77;30.80;;;;;;;6.49;100.00;102536.34;7387379;19;20745;-53
2022/03/24 01:18:02;;;;;;;58.00;29.13;;;;;;;6.49;100.00;102536.34;7382083;19;21019;-54
2022/03/24 01:20:32;;;;;;;64.03;27.87;;;;;;;6.62;100.00;102536.63;7387980;19;20387;-53
2022/03/24 01:23:04;;;;;;;58.40;28.60;;;;;;;6.63;100.00;102540.09;7383753;19;20398;-49
2022/03/24 01:25:34;;;;;;;63.47;27.57;;;;;;;6.56;100.00;102538.66;7385640;19;20963;-53
2022/03/24 01:28:04;;;;;;;66.17;30.70;;;;;;;6.39;100.00;102537.19;7382639;19;20440;-53
2022/03/24 01:30:34;;;;;;;63.97;31.60;;;;;;;6.40;100.00;102538.09;7386698;19;20956;-56
2022/03/24 01:33:03;;;;;;;73.23;35.30;;;;;;;6.34;100.00;102533.31;7381853;19;21377;-51
2022/03/24 01:35:34;;;;;;;64.30;31.10;;;;;;;6.35;100.00;102530.91;7389333;19;20433;-50
2022/03/24 01:38:06;;;;;;;69.80;33.67;;;;;;;6.15;100.00;102528.25;7382504;19;20433;-52
2022/03/24 01:40:36;;;;;;;62.60;30.97;;;;;;;6.12;100.00;102533.09;7388860;19;20376;-47
2022/03/24 01:43:07;;;;;;;66.13;33.87;;;;;;;6.18;100.00;102529.44;7382589;19;20407;-50
2022/03/24 01:45:37;;;;;;;75.47;30.83;;;;;;;6.15;100.00;102530.81;7386389;19;20424;-50
2022/03/24 01:48:08;;;;;;;66.47;33.17;;;;;;;6.06;100.00;102525.78;7388658;19;20421;-50
2022/03/24 01:50:39;;;;;;;67.07;31.87;;;;;;;5.97;100.00;102528.41;7394839;19;20398;-52
2022/03/24 01:53:12;;;;;;;64.50;30.80;;;;;;;5.89;100.00;102524.25;7392619;19;20930;-51
2022/03/24 01:55:41;;;;;;;75.43;32.80;;;;;;;5.88;100.00;102525.00;7395601;19;20406;-55
2022/03/24 01:58:11;;;;;;;68.97;33.73;;;;;;;5.89;100.00;102529.38;7390670;19;20973;-50
2022/03/24 02:00:41;;;;;;;61.77;30.00;;;;;;;5.94;100.00;102528.09;7397142;19;20413;-50
2022/03/24 02:03:11;;;;;;;64.90;30.27;;;;;;;5.98;100.00;102521.59;7392209;19;20397;-50
2022/03/24 02:05:40;;;;;;;59.40;29.53;;;;;;;5.87;100.00;102516.44;7394379;19;20461;-51
2022/03/24 02:08:13;;;;;;;70.53;33.17;;;;;;;6.06;100.00;102516.41;7391247;19;20416;-50
2022/03/24 02:10:42;;;;;;;62.60;29.47;;;;;;;6.11;100.00;102521.06;7397053;19;20372;-52
2022/03/24 02:13:11;;;;;;;67.73;34.27;;;;;;;6.01;100.00;102520.19;7387171;19;21033;-50
2022/03/24 02:15:41;;;;;;;66.03;31.33;;;;;;;5.90;100.00;102516.69;7396183;19;20491;-49
2022/03/24 02:18:13;;;;;;;67.37;31.40;;;;;;;5.80;100.00;102516.66;7392182;19;20460;-49
2022/03/24 02:20:43;;;;;;;60.40;30.83;;;;;;;5.80;100.00;102509.84;7397501;19;20887;-51
2022/03/24 02:23:15;;;;;;;65.23;29.40;;;;;;;5.80;100.00;102507.28;7391629;19;20421;-49
2022/03/24 02:25:45;;;;;;;63.17;30.07;;;;;;;5.79;100.00;102514.81;7394882;19;20430;-55
2022/03/24 02:28:14;;;;;;;66.13;31.90;;;;;;;5.78;100.00;102516.50;7389218;19;20423;-52
2022/03/24 02:30:47;;;;;;;66.93;30.40;;;;;;;5.57;100.00;102512.91;7397110;19;20392;-49
2022/03/24 02:33:17;;;;;;;65.93;31.60;;;;;;;5.53;100.00;102509.16;7387153;19;20417;-51
2022/03/24 02:35:47;;;;;;;68.13;30.43;;;;;;;5.56;100.00;102507.63;7395746;19;20744;-49
2022/03/24 02:38:20;;;;;;;58.43;29.33;;;;;;;5.67;100.00;102506.94;7390138;19;20407;-52
2022/03/24 02:40:49;;;;;;;61.93;32.10;;;;;;;5.51;100.00;102505.59;7395976;19;20367;-52
2022/03/24 02:43:20;;;;;;;68.53;33.83;;;;;;;5.46;100.00;102505.91;7389267;19;20909;-54
2022/03/24 02:45:50;;;;;;;70.30;32.40;;;;;;;5.47;100.00;102503.50;7395180;19;20442;-50
2022/03/24 02:48:20;;;;;;;64.57;31.43;;;;;;;5.57;100.00;102504.31;7392412;19;20427;-55
2022/03/24 02:50:50;;;;;;;74.93;32.87;;;;;;;5.43;100.00;102505.66;7396222;19;20388;-55
2022/03/24 02:53:22;;;;;;;102.20;41.53;;;;;;;5.26;100.00;102503.34;7391520;19;20403;-53
2022/03/24 02:55:51;;;;;;;82.50;36.50;;;;;;;5.30;100.00;102506.19;7394865;19;20391;-56
2022/03/24 02:58:21;;;;;;;65.13;33.80;;;;;;;5.25;100.00;102505.75;7389451;19;20391;-52
2022/03/24 03:00:50;;;;;;;75.13;33.77;;;;;;;5.23;100.00;102503.06;7396039;19;20789;-50
2022/03/24 03:03:22;;;;;;;69.40;32.93;;;;;;;5.24;100.00;102494.59;7390596;19;20396;-52
2022/03/24 03:05:51;;;;;;;69.10;31.20;;;;;;;5.24;100.00;102498.84;7394693;19;20475;-50
2022/03/24 03:08:23;;;;;;;63.13;30.67;;;;;;;5.23;100.00;102503.06;7390653;19;20443;-51
2022/03/24 03:10:53;;;;;;;66.90;31.63;;;;;;;5.20;100.00;102513.03;7395580;19;20394;-51
2022/03/24 03:13:23;;;;;;;71.40;31.90;;;;;;;5.08;100.00;102504.22;7394749;19;20418;-52
2022/03/24 03:15:52;;;;;;;73.80;32.83;;;;;;;5.04;100.00;102503.03;7394018;19;20396;-54
2022/03/24 03:18:22;;;;;;;71.87;34.23;;;;;;;5.14;100.00;102503.09;7389872;19;20408;-50
2022/03/24 03:20:51;;;;;;;68.33;33.30;;;;;;;5.00;100.00;102508.63;7394221;19;20943;-49
2022/03/24 03:23:23;;;;;;;68.27;31.83;;;;;;;4.89;100.00;102512.75;7393034;19;20971;-53
2022/03/24 03:25:53;;;;;;;73.80;34.53;;;;;;;4.88;100.00;102504.94;7397398;19;20417;-50
2022/03/24 03:28:23;;;;;;;75.13;34.83;;;;;;;4.91;100.00;102502.66;7388384;19;20441;-50
2022/03/24 03:30:52;;;;;;;82.40;37.03;;;;;;;4.86;100.00;102498.03;7394161;19;20375;-53
2022/03/24 03:33:22;;;;;;;77.93;32.40;;;;;;;4.83;100.00;102504.50;7391056;19;20439;-51
2022/03/24 03:35:51;;;;;;;66.47;32.17;;;;;;;4.95;100.00;102502.19;7393930;19;20439;-48
2022/03/24 03:38:24;;;;;;;65.57;32.47;;;;;;;4.96;100.00;102503.97;7387669;19;20418;-49
2022/03/24 03:40:54;;;;;;;70.13;33.37;;;;;;;4.84;100.00;102511.41;7394707;19;20384;-48
2022/03/24 03:43:23;;;;;;;65.30;33.87;;;;;;;4.82;100.00;102502.72;7390014;19;20410;-49
2022/03/24 03:45:52;;;;;;;71.33;33.30;;;;;;;4.86;100.00;102505.69;7393334;19;20439;-53
2022/03/24 03:48:22;;;;;;;72.03;33.80;;;;;;;4.79;100.00;102504.97;7388991;19;20440;-48
2022/03/24 03:50:52;;;;;;;75.77;33.57;;;;;;;4.62;100.00;102499.19;7393261;19;20380;-50
2022/03/24 03:53:24;;;;;;;69.10;33.20;;;;;;;4.71;100.00;102505.16;7387107;19;20411;-48
2022/03/24 03:55:53;;;;;;;73.03;32.00;;;;;;;4.65;100.00;102504.59;7393245;19;20406;-47
2022/03/24 03:58:23;;;;;;;67.30;32.60;;;;;;;4.61;100.00;102507.59;7388229;19;20418;-48
2022/03/24 04:00:55;;;;;;;66.13;32.70;;;;;;;4.64;100.00;102504.44;7393855;19;20369;-48
2022/03/24 04:03:26;;;;;;;62.07;31.43;;;;;;;4.51;100.00;102505.81;7387891;19;20465;-50
2022/03/24 04:05:56;;;;;;;78.77;36.67;;;;;;;4.38;100.00;102506.34;7392766;19;20975;-53
2022/03/24 04:08:30;;;;;;;67.10;34.83;;;;;;;4.53;100.00;102508.53;7386827;19;20421;-50
2022/03/24 04:11:00;;;;;;;72.20;34.67;;;;;;;4.40;100.00;102507.38;7393420;19;20710;-51
2022/03/24 04:13:30;;;;;;;76.73;35.17;;;;;;;4.48;100.00;102512.31;7389962;19;20415;-48
2022/03/24 04:15:59;;;;;;;77.50;35.50;;;;;;;4.43;100.00;102506.78;7391529;19;20421;-48
2022/03/24 04:18:29;;;;;;;66.93;33.70;;;;;;;4.55;100.00;102502.81;7388980;19;20390;-48
2022/03/24 04:20:58;;;;;;;78.47;35.87;;;;;;;4.39;100.00;102509.78;7393158;19;20392;-52
2022/03/24 04:23:31;;;;;;;80.53;37.57;;;;;;;4.44;100.00;102509.47;7388642;19;20430;-48
2022/03/24 04:26:00;;;;;;;78.33;37.50;;;;;;;4.49;100.00;102511.53;7391680;19;20406;-47
2022/03/24 04:28:30;;;;;;;66.93;33.33;;;;;;;4.55;100.00;102510.50;7388301;19;20413;-49
2022/03/24 04:30:59;;;;;;;71.03;33.63;;;;;;;4.66;100.00;102511.50;7392994;19;20398;-47
2022/03/24 04:33:29;;;;;;;61.73;32.90;;;;;;;4.67;100.00;102515.84;7386486;19;20390;-53
2022/03/24 04:35:59;;;;;;;61.30;29.13;;;;;;;4.92;100.00;102515.56;7391841;19;20405;-52
2022/03/24 04:38:31;;;;;;;74.97;32.80;;;;;;;5.09;100.00;102511.13;7388239;19;20414;-52
2022/03/24 04:41:01;;;;;;;60.23;30.57;;;;;;;4.92;100.00;102504.47;7392796;19;20367;-52
2022/03/24 04:43:30;;;;;;;68.83;30.17;;;;;;;4.70;100.00;102511.03;7386336;19;20419;-52
2022/03/24 04:46:00;;;;;;;63.77;29.93;;;;;;;4.57;100.00;102514.06;7391333;19;20403;-54
2022/03/24 04:48:35;;;;;;;66.03;31.87;;;;;;;4.51;100.00;102510.06;7386900;19;20741;-53
2022/03/24 04:51:07;;;;;;;65.70;31.90;;;;;;;4.64;100.00;102509.53;7391988;19;20391;-52
2022/03/24 04:53:39;;;;;;;63.70;31.57;;;;;;;4.44;100.00;102514.59;7386128;19;20763;-56
2022/03/24 04:56:10;;;;;;;63.93;31.83;;;;;;;4.38;100.00;102514.00;7391048;19;20418;-47
2022/03/24 04:58:40;;;;;;;77.03;33.27;;;;;;;4.42;100.00;102510.97;7390913;19;20398;-49
2022/03/24 05:01:13;;;;;;;75.10;36.30;;;;;;;4.32;100.00;102511.75;7391219;19;20390;-52
2022/03/24 05:03:46;;;;;;;71.23;34.60;;;;;;;4.11;100.00;102502.94;7391462;19;20394;-50
2022/03/24 05:06:16;;;;;;;68.30;32.07;;;;;;;4.28;100.00;102508.75;7384535;19;20486;-54
2022/03/24 05:08:50;;;;;;;78.13;33.50;;;;;;;4.19;100.00;102511.34;7390861;19;20386;-52
2022/03/24 05:11:19;;;;;;;68.40;32.80;;;;;;;4.21;100.00;102504.75;7387519;19;20454;-51
2022/03/24 05:13:50;;;;;;;73.57;35.77;;;;;;;4.13;100.00;102504.00;7391716;19;20387;-50
2022/03/24 05:16:19;;;;;;;70.63;33.60;;;;;;;4.14;100.00;102502.31;7383339;19;20415;-47
2022/03/24 05:18:49;;;;;;;73.27;34.17;;;;;;;4.21;100.00;102499.63;7394176;19;20407;-50
2022/03/24 05:21:19;;;;;;;66.00;31.20;;;;;;;4.32;100.00;102504.09;7389702;19;20394;-49
2022/03/24 05:23:51;;;;;;;70.13;33.83;;;;;;;4.23;100.00;102508.34;7398788;19;20367;-51
2022/03/24 05:26:23;;;;;;;65.73;32.60;;;;;;;4.21;100.00;102508.94;7393013;19;20415;-46
2022/03/24 05:28:52;;;;;;;67.73;33.43;;;;;;;4.32;100.00;102508.31;7397291;19;20479;-50
2022/03/24 05:31:23;;;;;;;69.07;33.37;;;;;;;4.11;100.00;102507.16;7392439;19;20398;-52
2022/03/24 05:33:52;;;;;;;73.47;32.53;;;;;;;4.05;100.00;102507.44;7398707;19;20693;-49
2022/03/24 05:36:22;;;;;;;72.17;35.27;;;;;;;4.03;100.00;102503.84;7392692;19;20402;-49
2022/03/24 05:38:58;;;;;;;435.53;224.17;;;;;;;4.17;100.00;102495.84;7396880;19;20901;-52
2022/03/24 05:41:28;;;;;;;121.97;53.40;;;;;;;4.36;100.00;102502.72;7391822;19;20383;-50
2022/03/24 05:44:06;;;;;;;108.93;47.77;;;;;;;4.41;100.00;102498.06;7397433;19;20371;-50
2022/03/24 05:46:45;;;;;;;91.43;41.57;;;;;;;4.18;100.00;102505.34;7393464;19;20398;-51
2022/03/24 05:49:19;;;;;;;101.40;46.50;;;;;;;4.15;100.00;102502.47;7397722;19;20400;-52
2022/03/24 05:51:49;;;;;;;85.50;38.90;;;;;;;4.18;100.00;102510.44;7394151;19;20395;-51
2022/03/24 05:54:21;;;;;;;71.83;36.73;;;;;;;4.26;100.00;102503.50;7397955;19;20375;-52
2022/03/24 05:56:51;;;;;;;73.80;36.33;;;;;;;4.13;100.00;102511.66;7392262;19;20406;-52
2022/03/24 05:59:21;;;;;;;76.20;34.23;;;;;;;4.15;100.00;102510.16;7395550;19;20367;-48
2022/03/24 06:01:50;;;;;;;86.33;37.33;;;;;;;4.22;100.00;102510.72;7394160;19;20402;-47
2022/03/24 06:04:20;;;;;;;92.50;41.80;;;;;;;4.46;100.00;102507.03;7397830;19;20787;-49
2022/03/24 06:06:53;;;;;;;75.37;36.77;;;;;;;4.55;100.00;102515.59;7392981;19;20423;-49
2022/03/24 06:09:26;;;;;;;89.47;39.33;;;;;;;4.56;100.00;102519.06;7397071;19;20370;-50
2022/03/24 06:11:56;;;;;;;82.03;40.07;;;;;;;4.67;100.00;102509.84;7393085;19;20723;-46
2022/03/24 06:14:27;;;;;;;89.87;40.70;;;;;;;5.03;100.00;102510.56;7396117;19;20387;-47
2022/03/24 06:16:56;;;;;;;84.70;38.13;;;;;;;5.25;100.00;102519.47;7392620;19;20421;-47
2022/03/24 06:19:26;;;;;;;84.73;40.50;;;;;;;5.41;100.00;102518.31;7396875;19;20375;-46
2022/03/24 06:21:55;;;;;;;67.90;35.87;;;;;;;5.09;100.00;102523.94;7393077;19;20426;-55
2022/03/24 06:24:29;;;;;;;77.67;38.60;;;;;;;5.04;100.00;102530.28;7396821;19;20386;-54
2022/03/24 06:26:59;;;;;;;84.60;38.53;;;;;;;4.75;100.00;102525.88;7391868;19;20418;-55
2022/03/24 06:29:28;;;;;;;84.03;36.70;;;;;;;4.71;100.00;102529.81;7396339;19;20394;-51
2022/03/24 06:31:58;;;;;;;82.80;37.57;;;;;;;4.75;100.00;102531.00;7388789;19;20448;-49
2022/03/24 06:34:27;;;;;;;75.03;37.60;;;;;;;4.64;100.00;102528.34;7395372;19;20942;-52
2022/03/24 06:36:57;;;;;;;79.77;37.10;;;;;;;4.61;100.00;102530.59;7391738;19;20407;-57
2022/03/24 06:39:29;;;;;;;78.40;37.97;;;;;;;5.06;100.00;102521.97;7396403;19;20379;-55
2022/03/24 06:41:59;;;;;;;74.27;35.17;;;;;;;5.16;100.00;102526.28;7391190;19;20391;-53
2022/03/24 06:44:29;;;;;;;86.83;37.60;;;;;;;5.12;100.00;102524.19;7395984;19;20707;-52
2022/03/24 06:46:58;;;;;;;81.13;37.17;;;;;;;5.08;100.00;102532.38;7391696;19;20408;-53
2022/03/24 06:49:28;;;;;;;80.37;35.17;;;;;;;5.07;100.00;102533.13;7394581;19;20391;-50
2022/03/24 06:51:58;;;;;;;79.20;37.60;;;;;;;5.27;100.00;102535.84;7389037;19;20415;-52
2022/03/24 06:54:30;;;;;;;77.27;37.10;;;;;;;5.51;100.00;102527.72;7395603;19;20403;-53
2022/03/24 06:57:00;;;;;;;85.23;40.60;;;;;;;5.60;100.00;102530.22;7391209;19;20415;-53
2022/03/24 06:59:29;;;;;;;83.60;35.40;;;;;;;5.68;100.00;102531.78;7394965;19;20387;-52
2022/03/24 07:01:59;;;;;;;70.67;34.87;;;;;;;5.88;100.00;102541.28;7391384;19;20938;-53
2022/03/24 07:04:29;;;;;;;80.27;36.20;;;;;;;5.90;100.00;102537.19;7395472;19;20407;-50
2022/03/24 07:06:59;;;;;;;69.87;34.93;;;;;;;5.92;100.00;102545.00;7389744;19;20401;-53
2022/03/24 07:09:31;;;;;;;73.03;35.20;;;;;;;5.98;100.00;102540.44;7394201;19;20415;-47
2022/03/24 07:12:00;;;;;;;72.97;34.97;;;;;;;6.07;100.00;102535.25;7392228;19;20776;-52
2022/03/24 07:14:30;;;;;;;73.03;34.47;;;;;;;6.12;100.00;102541.72;7395215;19;20382;-50
2022/03/24 07:16:59;;;;;;;65.93;33.57;;;;;;;6.14;100.00;102541.81;7390857;19;20759;-53
2022/03/24 07:19:29;;;;;;;68.50;36.50;;;;;;;6.11;100.00;102544.13;7398363;19;20407;-49
2022/03/24 07:21:59;;;;;;;75.17;35.43;;;;;;;6.18;100.00;102538.78;7393078;19;20436;-48
2022/03/24 07:24:31;;;;;;;67.13;34.87;;;;;;;6.32;100.00;102543.44;7394132;19;20394;-53
2022/03/24 07:27:00;;;;;;;68.47;35.03;;;;;;;6.47;100.00;102543.88;7390463;19;20400;-53
2022/03/24 07:29:30;;;;;;;73.53;36.40;;;;;;;6.70;100.00;102550.13;7393231;19;20397;-49
2022/03/24 07:32:01;;;;;;;75.30;35.13;;;;;;;6.50;100.00;102553.50;7388854;19;20426;-50
2022/03/24 07:34:31;;;;;;;67.50;33.87;;;;;;;6.44;100.00;102558.09;7394845;19;20383;-50
2022/03/24 07:37:00;;;;;;;76.20;35.57;;;;;;;6.48;100.00;102555.06;7389543;19;20412;-48
2022/03/24 07:39:32;;;;;;;71.63;36.83;;;;;;;6.67;100.00;102556.66;7393913;19;20428;-51
2022/03/24 07:42:02;;;;;;;70.93;33.37;;;;;;;6.72;100.00;102556.28;7387541;19;20424;-50
2022/03/24 07:44:32;;;;;;;67.43;34.37;;;;;;;6.83;100.00;102558.88;7394467;19;20389;-53
2022/03/24 07:47:01;;;;;;;65.53;32.57;;;;;;;7.13;100.00;102559.69;7390549;19;20420;-51
2022/03/24 07:49:31;;;;;;;66.87;33.80;;;;;;;7.34;100.00;102563.16;7391992;19;20370;-51
2022/03/24 07:52:00;;;;;;;64.50;34.57;;;;;;;7.10;100.00;102555.19;7389782;19;20405;-48
2022/03/24 07:54:47;;;;;;;64.30;33.17;;;;;;;7.28;100.00;102557.53;7394198;19;20417;-50
2022/03/24 07:57:17;;;;;;;69.90;34.43;;;;;;;7.43;100.00;102568.16;7389579;19;20401;-50
2022/03/24 07:59:46;;;;;;;65.10;33.30;;;;;;;7.47;100.00;102566.75;7392673;19;20472;-49
2022/03/24 08:02:17;;;;;;;68.70;33.57;;;;;;;7.44;100.00;102567.41;7388146;19;20961;-51
2022/03/24 08:04:47;;;;;;;62.57;32.93;;;;;;;7.81;100.00;102564.41;7392823;19;20419;-47
2022/03/24 08:07:17;;;;;;;70.53;33.53;;;;;;;7.84;100.00;102562.06;7386107;19;20436;-47
2022/03/24 08:09:50;;;;;;;69.53;33.53;;;;;;;7.93;100.00;102560.28;7392073;19;20396;-48
2022/03/24 08:12:20;;;;;;;62.87;34.20;;;;;;;8.18;100.00;102558.78;7389352;19;20424;-53
2022/03/24 08:14:52;;;;;;;69.57;35.43;;;;;;;8.53;100.00;102565.88;7392493;19;20432;-51
2022/03/24 08:17:22;;;;;;;66.13;34.00;;;;;;;8.64;100.00;102561.56;7389250;19;20411;-52
2022/03/24 08:19:51;;;;;;;71.10;34.57;;;;;;;8.88;100.00;102569.44;7392198;19;20387;-55
2022/03/24 08:22:21;;;;;;;65.20;34.77;;;;;;;8.90;100.00;102570.44;7386974;19;20491;-49
2022/03/24 08:24:53;;;;;;;65.33;34.10;;;;;;;8.86;100.00;102571.88;7392467;19;20427;-51
2022/03/24 08:27:22;;;;;;;62.60;33.77;;;;;;;8.82;100.00;102569.84;7388573;19;20417;-53
2022/03/24 08:29:52;;;;;;;66.80;32.70;;;;;;;8.88;100.00;102566.84;7391292;19;20697;-51
2022/03/24 08:32:22;;;;;;;63.97;33.77;;;;;;;8.93;100.00;102575.84;7387193;19;20415;-50
2022/03/24 08:34:51;;;;;;;59.47;30.00;;;;;;;9.09;100.00;102579.59;7392753;19;20406;-49
2022/03/24 08:37:21;;;;;;;60.60;31.80;;;;;;;9.20;100.00;102573.59;7387406;19;20753;-52
2022/03/24 08:39:53;;;;;;;61.63;31.30;;;;;;;9.24;100.00;102569.56;7391560;19;20387;-48
2022/03/24 08:42:23;;;;;;;69.63;31.83;;;;;;;9.25;100.00;102574.84;7383910;19;20829;-51
2022/03/24 08:44:52;;;;;;;55.17;30.60;;;;;;;9.56;100.00;102569.44;7392485;19;20491;-46
2022/03/24 08:47:22;;;;;;;63.23;30.67;;;;;;;9.65;100.00;102568.31;7388109;19;20418;-50
2022/03/24 08:49:51;;;;;;;65.10;32.37;;;;;;;9.78;100.00;102575.25;7390532;19;20380;-53
2022/03/24 08:52:21;;;;;;;64.17;29.67;;;;;;;9.67;100.00;102571.88;7387592;19;20426;-55
2022/03/24 08:54:54;;;;;;;81.90;40.23;;;;;;;10.26;100.00;102571.91;7392748;19;20483;-51
2022/03/24 08:57:26;;;;;;;64.43;30.60;;;;;;;10.51;99.81;102572.81;7394782;19;20386;-53
2022/03/24 08:59:56;;;;;;;91.33;44.10;;;;;;;10.59;99.84;102575.91;7398288;19;20387;-51
2022/03/24 09:02:26;;;;;;;77.00;37.13;;;;;;;10.85;99.45;102570.00;7395344;19;20407;-56
2022/03/24 09:04:55;;;;;;;79.17;38.60;;;;;;;11.07;98.20;102571.47;7399085;19;20423;-51
2022/03/24 09:07:37;;;;;;;84.57;42.40;;;;;;;11.19;95.81;102572.31;7396087;19;21017;-49
2022/03/24 09:10:10;;;;;;;62.97;32.23;;;;;;;11.07;94.13;102572.38;7396888;19;20760;-50
2022/03/24 09:12:44;;;;;;;70.90;35.23;;;;;;;11.57;94.97;102577.41;7395233;19;20419;-48
2022/03/24 09:15:15;;;;;;;63.43;30.67;;;;;;;11.26;91.85;102577.91;7396958;19;20420;-51
2022/03/24 09:17:45;;;;;;;60.87;30.03;;;;;;;10.87;91.68;102572.72;7393491;19;20418;-50
2022/03/24 09:20:18;;;;;;;61.07;29.87;;;;;;;10.90;92.17;102576.41;7398065;19;20915;-49
2022/03/24 09:22:49;;;;;;;56.50;29.00;;;;;;;10.87;90.52;102575.28;7393289;19;20976;-49
2022/03/24 09:25:22;;;;;;;54.23;29.57;;;;;;;11.18;90.64;102573.13;7397643;19;20415;-50
2022/03/24 09:27:51;;;;;;;58.50;29.83;;;;;;;11.56;90.93;102567.84;7392506;19;20435;-50
2022/03/24 09:30:21;;;;;;;46.73;24.60;;;;;;;11.42;86.89;102569.50;7400069;19;20406;-53
2022/03/24 09:32:52;;;;;;;67.53;31.57;;;;;;;11.67;88.87;102560.81;7392107;19;20443;-51
2022/03/24 09:35:21;;;;;;;55.00;27.67;;;;;;;11.92;87.79;102573.66;7397382;19;20476;-51
2022/03/24 09:37:51;;;;;;;55.97;29.80;;;;;;;12.07;86.03;102563.44;7393700;19;20421;-52
2022/03/24 09:40:23;;;;;;;62.13;29.30;;;;;;;12.24;85.27;102566.22;7398661;19;20397;-49
2022/03/24 09:42:53;;;;;;;56.43;30.90;;;;;;;12.30;85.04;102571.78;7393055;19;20954;-50
2022/03/24 09:45:24;;;;;;;77.43;37.70;;;;;;;12.28;85.79;102566.53;7399035;19;20434;-51
2022/03/24 09:47:54;;;;;;;59.97;31.10;;;;;;;12.46;84.80;102567.59;7390973;19;21252;-48
2022/03/24 09:50:24;;;;;;;58.33;29.80;;;;;;;12.41;83.37;102567.31;7395818;19;20386;-50
2022/03/24 09:52:56;;;;;;;71.63;37.80;;;;;;;12.49;84.73;102562.59;7391513;19;20418;-49
2022/03/24 09:55:32;;;;;;;62.80;30.40;;;;;;;12.61;84.25;102559.88;7395778;19;20414;-53
2022/03/24 09:58:02;;;;;;;55.93;29.97;;;;;;;12.61;82.95;102557.28;7389966;19;20938;-50
2022/03/24 10:00:47;;;;;;;55.53;29.50;;;;;;;12.64;84.18;102560.06;7400581;19;20425;-54
2022/03/24 10:03:21;;;;;;;54.27;30.27;;;;;;;12.81;82.26;102563.69;7396484;19;20462;-51
2022/03/24 10:05:59;;;;;;;59.83;30.70;;;;;;;12.73;82.12;102563.25;7394737;19;20424;-52
2022/03/24 10:08:30;;;;;;;51.53;29.47;;;;;;;12.75;81.18;102560.72;7389671;19;20403;-54
2022/03/24 10:11:05;;;;;;;53.33;28.93;;;;;;;12.50;81.32;102560.09;7395032;19;20384;-53
2022/03/24 10:13:45;;;;;;;64.23;29.97;;;;;;;12.49;82.85;102562.59;7389140;19;20514;-53
2022/03/24 10:16:40;;;;;;;63.47;30.90;;;;;;;12.59;82.55;102564.06;7389827;19;20422;-49
2022/03/24 10:19:11;;;;;;;58.27;29.70;;;;;;;12.81;82.72;102561.09;7396349;19;20386;-53
2022/03/24 10:21:42;;;;;;;55.53;30.07;;;;;;;12.85;82.48;102554.41;7387448;19;20405;-50
2022/03/24 10:24:14;;;;;;;52.20;28.70;;;;;;;12.88;81.44;102552.00;7396995;19;20379;-53
2022/03/24 10:26:48;;;;;;;53.63;26.90;;;;;;;12.63;80.39;102558.28;7389497;19;20422;-53
2022/03/24 10:29:20;;;;;;;70.67;36.20;;;;;;;12.58;81.70;102557.09;7395340;19;20919;-52
2022/03/24 10:31:54;;;;;;;56.70;29.67;;;;;;;12.69;81.15;102556.97;7382188;19;20502;-53
2022/03/24 10:34:32;;;;;;;61.10;31.30;;;;;;;12.89;81.33;102551.22;7400599;19;20414;-52
2022/03/24 10:37:05;;;;;;;51.40;26.70;;;;;;;12.90;80.10;102556.50;7392148;19;20410;-48
2022/03/24 10:39:35;;;;;;;55.03;27.57;;;;;;;12.86;80.97;102556.22;7397976;19;20408;-49
2022/03/24 10:42:19;;;;;;;53.57;26.50;;;;;;;12.88;80.22;102552.00;7388488;19;20993;-52
2022/03/24 10:45:09;;;;;;;55.30;27.07;;;;;;;12.87;81.90;102547.66;7395969;19;20717;-55
2022/03/24 10:47:47;;;;;;;54.13;29.00;;;;;;;13.21;81.47;102545.38;7389562;19;20416;-52
2022/03/24 10:50:37;;;;;;;58.27;31.17;;;;;;;13.53;81.59;102544.63;7393710;19;20387;-52
2022/03/24 10:53:08;;;;;;;56.57;29.30;;;;;;;13.66;80.96;102541.03;7389342;19;20495;-51
2022/03/24 10:55:50;;;;;;;56.00;28.57;;;;;;;13.71;79.16;102540.50;7394307;19;20411;-52
2022/03/24 10:58:30;;;;;;;52.17;28.23;;;;;;;13.49;77.83;102539.25;7388188;19;20411;-52
2022/03/24 11:01:01;;;;;;;54.73;27.67;;;;;;;13.77;77.78;102529.56;7395999;19;20962;-51
2022/03/24 11:03:31;;;;;;;56.57;27.00;;;;;;;14.03;77.53;102535.34;7388597;19;20943;-53
2022/03/24 11:06:09;;;;;;;54.87;29.10;;;;;;;14.05;77.34;102536.31;7393962;19;20415;-54
2022/03/24 11:08:39;;;;;;;46.77;27.30;;;;;;;13.83;77.25;102537.69;7395738;19;20760;-52
2022/03/24 11:11:10;;;;;;;53.27;27.50;;;;;;;14.04;77.55;102540.63;7392979;19;20400;-54
2022/03/24 11:13:52;;;;;;;53.67;28.63;;;;;;;14.10;77.14;102534.00;7394530;19;21594;-48
2022/03/24 11:16:24;;;;;;;51.37;28.90;;;;;;;14.09;76.89;102535.69;7386569;19;20424;-51
2022/03/24 11:18:56;;;;;;;57.27;28.27;;;;;;;14.06;76.93;102532.03;7392682;19;20391;-54
2022/03/24 11:21:32;;;;;;;61.20;28.67;;;;;;;14.00;76.97;102530.00;7391961;19;20395;-52
2022/03/24 11:24:03;;;;;;;49.80;27.77;;;;;;;14.08;77.92;102530.38;7398678;19;20410;-52
2022/03/24 11:26:34;;;;;;;52.67;29.67;;;;;;;13.83;75.67;102521.22;7387071;19;20428;-51